Time;durP1;ratioP1;P1;durP2;ratioP2;P2;SDS_P1;SDS_P2;PMS_P1;PMS_P2;Temp;Humidity;BMP_temperature;BMP_pressure;BME280_temperature;BME280_humidity;BME280_pressure;Samples;Min_cycle;Max_cycle;Signal;HPM_P1;HPM_P2
2022/06/07 00:02:10;;;;;;;;;;;;;;;27.70;35.19;100635.63;5056147;28;978;-40
2022/06/07 00:04:35;;;;;;;;;;;;;;;27.69;34.92;100642.06;5056154;28;1005;-41
2022/06/07 00:07:01;;;;;;;;;;;;;;;27.74;34.73;100635.06;5055999;28;1001;-39
2022/06/07 00:09:26;;;;;;;;;;;;;;;27.69;34.95;100631.25;5055625;28;1013;-39
2022/06/07 00:11:52;;;;;;;;;;;;;;;27.73;34.64;100633.41;5055994;28;1894;-37
2022/06/07 00:14:17;;;;;;;;;;;;;;;27.73;34.76;100624.44;5051867;28;1024;-37
2022/06/07 00:16:42;;;;;;;;;;;;;;;27.65;35.38;100628.06;5055769;28;904;-37
2022/06/07 00:19:07;;;;;;;;;;;;;;;27.65;34.69;100629.94;5055884;28;1206;-37
2022/06/07 00:21:33;;;;;;;;;;;;;;;27.65;34.99;100627.22;5055748;28;1092;-38
2022/06/07 00:24:01;;;;;;;;;;;;;;;27.70;34.75;100624.81;5055536;28;1282;-38
2022/06/07 00:26:27;;;;;;;;;;;;;;;27.72;34.92;100623.63;5035852;28;1029;-38
2022/06/07 00:28:53;;;;;;;;;;;;;;;27.68;35.03;100619.63;5037551;28;1310;-38
2022/06/07 00:31:18;;;;;;;;;;;;;;;27.63;34.62;100620.16;5054920;28;1957;-38
2022/06/07 00:33:43;;;;;;;;;;;;;;;27.66;34.56;100618.94;5055732;28;1029;-38
2022/06/07 00:36:09;;;;;;;;;;;;;;;27.61;34.96;100610.56;5055247;28;1168;-39
2022/06/07 00:38:34;;;;;;;;;;;;;;;27.65;35.24;100619.97;5036821;28;1176;-37
2022/06/07 00:40:59;;;;;;;;;;;;;;;27.61;35.41;100618.69;5055752;28;1235;-38
2022/06/07 00:43:25;;;;;;;;;;;;;;;27.65;34.97;100619.13;5055016;28;1216;-38
2022/06/07 00:45:50;;;;;;;;;;;;;;;27.60;35.08;100617.84;5057033;28;1084;-38
2022/06/07 00:48:15;;;;;;;;;;;;;;;27.66;35.10;100624.31;5055093;28;1215;-38
2022/06/07 00:50:54;;;;;;;;;;;;;;;27.63;35.13;100622.00;5036474;28;1967;-37
2022/06/07 00:53:21;;;;;;;;;;;;;;;27.58;35.47;100622.59;5038334;28;1128;-40
2022/06/07 00:55:46;;;;;;;;;;;;;;;27.62;35.67;100618.50;5055786;28;1069;-40
2022/06/07 00:58:11;;;;;;;;;;;;;;;27.65;35.21;100613.72;5055006;28;1022;-39
2022/06/07 01:00:37;;;;;;;;;;;;;;;27.64;35.32;100607.50;5055281;28;1235;-40
2022/06/07 01:03:02;;;;;;;;;;;;;;;27.70;35.16;100606.75;5053034;28;1251;-39
2022/06/07 01:05:27;;;;;;;;;;;;;;;27.67;35.34;100609.81;5054914;28;1033;-37
2022/06/07 01:10:46;;;;;;;;;;;;;;;27.63;35.58;100598.53;5055219;28;1890;-37
2022/06/07 01:13:15;;;;;;;;;;;;;;;27.69;35.38;100601.53;5054848;28;1124;-38
2022/06/07 01:15:45;;;;;;;;;;;;;;;27.66;35.40;100599.19;5054473;28;1255;-37
2022/06/07 01:18:10;;;;;;;;;;;;;;;27.60;35.64;100598.91;5053339;28;1286;-37
2022/06/07 01:20:35;;;;;;;;;;;;;;;27.62;35.67;100604.13;5054884;28;1196;-37
2022/06/07 01:23:01;;;;;;;;;;;;;;;27.65;35.56;100606.44;5037271;28;1256;-38
2022/06/07 01:25:26;;;;;;;;;;;;;;;27.66;35.54;100605.41;5055351;28;1112;-38
2022/06/07 01:27:51;;;;;;;;;;;;;;;27.64;35.59;100615.59;5055170;28;1212;-37
2022/06/07 01:30:17;;;;;;;;;;;;;;;27.60;35.63;100609.72;5054587;28;1890;-39
2022/06/07 01:32:42;;;;;;;;;;;;;;;27.65;35.76;100608.31;5036638;28;1287;-39
2022/06/07 01:35:07;;;;;;;;;;;;;;;27.61;36.18;100608.69;5054837;28;1041;-39
2022/06/07 01:37:33;;;;;;;;;;;;;;;27.65;35.93;100611.84;5054870;28;1084;-39
2022/06/07 01:42:42;;;;;;;;;;;;;;;27.65;36.13;100629.94;5054134;28;1061;-39
2022/06/07 01:45:08;;;;;;;;;;;;;;;27.64;35.78;100623.69;5055167;28;1109;-38
2022/06/07 01:47:33;;;;;;;;;;;;;;;27.61;35.83;100622.19;5054626;28;1174;-39
2022/06/07 01:49:59;;;;;;;;;;;;;;;27.66;35.64;100613.53;5058070;28;1048;-38
2022/06/07 01:52:25;;;;;;;;;;;;;;;27.63;35.64;100614.75;5027451;28;1976;-38
2022/06/07 01:54:53;;;;;;;;;;;;;;;27.60;35.84;100615.13;5057301;28;1105;-38
2022/06/07 01:57:19;;;;;;;;;;;;;;;27.67;36.00;100614.38;5058507;28;1033;-40
2022/06/07 01:59:44;;;;;;;;;;;;;;;27.69;35.63;100618.59;5058865;28;1012;-39
2022/06/07 02:02:09;;;;;;;;;;;;;;;27.65;35.99;100621.81;5052482;28;946;-38
2022/06/07 02:04:35;;;;;;;;;;;;;;;27.68;35.97;100626.84;5058359;28;1041;-39
2022/06/07 02:07:00;;;;;;;;;;;;;;;27.66;35.59;100629.72;5058077;28;981;-38
2022/06/07 02:09:26;;;;;;;;;;;;;;;27.62;35.61;100633.84;5053845;28;1064;-39
2022/06/07 02:11:51;;;;;;;;;;;;;;;27.61;35.40;100635.72;5057985;28;1898;-38
2022/06/07 02:14:16;;;;;;;;;;;;;;;27.63;35.41;100636.38;5054231;28;1124;-39
2022/06/07 02:16:42;;;;;;;;;;;;;;;27.59;35.42;100636.94;5057848;28;1227;-39
2022/06/07 02:19:07;;;;;;;;;;;;;;;27.62;35.60;100632.00;5057634;28;1207;-39
2022/06/07 02:21:32;;;;;;;;;;;;;;;27.56;35.32;100635.44;5057627;28;1259;-39
2022/06/07 02:23:58;;;;;;;;;;;;;;;27.61;35.83;100641.13;5057768;28;1286;-39
2022/06/07 02:26:30;;;;;;;;;;;;;;;27.63;35.67;100644.47;5057793;28;1338;-38
2022/06/07 02:28:57;;;;;;;;;;;;;;;27.61;35.72;100635.72;5057820;28;1259;-40
2022/06/07 02:31:23;;;;;;;;;;;;;;;27.53;35.92;100630.41;5055915;28;1898;-38
2022/06/07 02:33:48;;;;;;;;;;;;;;;27.53;36.06;100630.41;5057409;28;1236;-38
2022/06/07 02:36:13;;;;;;;;;;;;;;;27.62;35.69;100639.25;5039470;28;1233;-38
2022/06/07 02:38:39;;;;;;;;;;;;;;;27.65;35.81;100636.19;5057873;28;1215;-39
2022/06/07 02:41:05;;;;;;;;;;;;;;;27.66;35.58;100637.84;5038992;28;1185;-38
2022/06/07 02:43:31;;;;;;;;;;;;;;;27.64;35.71;100634.50;5057044;28;1287;-38
2022/06/07 02:45:56;;;;;;;;;;;;;;;27.53;35.98;100630.41;5054855;28;1189;-39
2022/06/07 02:48:21;;;;;;;;;;;;;;;27.57;35.78;100626.31;5057131;28;1270;-38
2022/06/07 02:50:47;;;;;;;;;;;;;;;27.55;35.73;100628.38;5057582;28;1910;-38
2022/06/07 02:53:13;;;;;;;;;;;;;;;27.58;35.73;100622.59;5057196;28;1274;-38
2022/06/07 02:55:38;;;;;;;;;;;;;;;27.61;35.59;100624.09;5057389;28;1030;-38
2022/06/07 02:58:03;;;;;;;;;;;;;;;27.58;35.58;100619.88;5038628;28;1010;-39
2022/06/07 03:00:29;;;;;;;;;;;;;;;27.56;35.99;100616.53;5056307;28;1306;-38
2022/06/07 03:02:54;;;;;;;;;;;;;;;27.60;35.84;100611.59;5056688;28;1239;-38
2022/06/07 03:05:19;;;;;;;;;;;;;;;27.61;35.93;100613.28;5053805;28;1144;-39
2022/06/07 03:07:44;;;;;;;;;;;;;;;27.48;36.05;100614.78;5055089;28;1076;-38
2022/06/07 03:10:10;;;;;;;;;;;;;;;27.51;36.46;100610.84;5056783;28;969;-39
2022/06/07 03:12:36;;;;;;;;;;;;;;;27.59;36.14;100602.63;5056769;28;1875;-43
2022/06/07 03:15:01;;;;;;;;;;;;;;;27.61;36.00;100607.88;5055348;28;1093;-41
2022/06/07 03:17:26;;;;;;;;;;;;;;;27.69;36.18;100612.34;5055975;28;1078;-43
2022/06/07 03:19:52;;;;;;;;;;;;;;;27.66;36.21;100612.72;5054297;28;1442;-41
2022/06/07 03:22:17;;;;;;;;;;;;;;;27.69;36.10;100613.19;5056508;28;1022;-44
2022/06/07 03:24:43;;;;;;;;;;;;;;;27.68;36.35;100607.94;5055342;28;907;-40
2022/06/07 03:27:08;;;;;;;;;;;;;;;27.70;35.92;100611.31;5045256;28;1414;-41
2022/06/07 03:29:33;;;;;;;;;;;;;;;27.70;36.31;100611.31;5051687;28;993;-42
2022/06/07 03:31:59;;;;;;;;;;;;;;;27.78;36.12;100618.50;5048388;28;1959;-43
2022/06/07 03:34:24;;;;;;;;;;;;;;;27.77;36.21;100619.50;5052864;28;1061;-42
2022/06/07 03:36:49;;;;;;;;;;;;;;;27.69;36.29;100628.56;5052925;28;1132;-42
2022/06/07 03:39:14;;;;;;;;;;;;;;;27.69;36.40;100624.00;5054259;28;1028;-46
2022/06/07 03:41:40;;;;;;;;;;;;;;;27.80;36.10;100629.94;5037437;28;1053;-42
2022/06/07 03:44:05;;;;;;;;;;;;;;;27.75;36.51;100628.66;5055059;28;998;-43
2022/06/07 03:46:32;;;;;;;;;;;;;;;27.70;36.26;100625.66;5055748;28;1045;-43
2022/06/07 03:48:58;;;;;;;;;;;;;;;27.71;36.25;100632.75;5051164;28;1179;-42
2022/06/07 03:51:24;;;;;;;;;;;;;;;27.69;36.52;100632.13;5055042;28;1910;-43
2022/06/07 03:53:49;;;;;;;;;;;;;;;27.81;36.39;100624.31;5048296;28;985;-41
2022/06/07 03:56:14;;;;;;;;;;;;;;;27.85;36.29;100636.44;5049836;28;1029;-43
2022/06/07 03:58:40;;;;;;;;;;;;;;;27.88;36.16;100629.81;5056603;28;1088;-41
2022/06/07 04:01:06;;;;;;;;;;;;;;;27.93;36.83;100621.13;5055789;28;897;-45
2022/06/07 04:03:31;;;;;;;;;;;;;;;27.86;36.19;100621.06;5055915;28;1084;-41
2022/06/07 04:05:56;;;;;;;;;;;;;;;27.65;36.46;100617.25;5056028;28;993;-43
2022/06/07 04:08:22;;;;;;;;;;;;;;;27.47;36.14;100614.97;5056327;28;1068;-45
2022/06/07 04:10:51;;;;;;;;;;;;;;;27.60;36.76;100612.44;5055724;28;1905;-40
2022/06/07 04:13:16;;;;;;;;;;;;;;;27.55;36.88;100620.25;5056301;28;1041;-44
2022/06/07 04:15:42;;;;;;;;;;;;;;;27.55;36.92;100608.59;5055749;28;983;-43
2022/06/07 04:18:07;;;;;;;;;;;;;;;27.58;36.95;100608.22;5056312;28;1048;-42
2022/06/07 04:20:33;;;;;;;;;;;;;;;27.73;36.97;100606.38;5056400;28;1163;-41
2022/06/07 04:22:58;;;;;;;;;;;;;;;27.70;36.83;100603.19;5055837;28;1080;-45
2022/06/07 04:25:24;;;;;;;;;;;;;;;27.58;37.11;100597.41;5055755;28;1060;-41
2022/06/07 04:27:50;;;;;;;;;;;;;;;27.68;37.16;100607.94;5050643;28;1458;-44
2022/06/07 04:30:16;;;;;;;;;;;;;;;27.74;36.89;100596.41;5055810;28;1952;-40
2022/06/07 04:32:46;;;;;;;;;;;;;;;27.71;36.88;100589.50;5053254;28;1116;-41
2022/06/07 04:38:50;;;;;;;;;;;;;;;27.60;37.15;100592.66;5054868;28;935;-39
2022/06/07 04:44:18;;;;;;;;;;;;;;;27.56;37.68;100583.28;4989521;28;1047;-43
2022/06/07 04:46:43;;;;;;;;;;;;;;;27.60;37.45;100585.41;4993492;28;1291;-44
2022/06/07 04:49:08;;;;;;;;;;;;;;;27.65;37.24;100592.09;5017807;28;1141;-42
2022/06/07 04:51:34;;;;;;;;;;;;;;;27.79;36.96;100598.53;5055528;28;1967;-43
2022/06/07 04:53:59;;;;;;;;;;;;;;;27.88;36.99;100602.78;5055195;28;941;-38
2022/06/07 04:56:26;;;;;;;;;;;;;;;27.85;36.79;100604.00;5055343;28;1081;-41
2022/06/07 04:58:51;;;;;;;;;;;;;;;27.79;37.09;100601.22;5052933;28;1060;-42
2022/06/07 05:01:17;;;;;;;;;;;;;;;27.92;36.31;100601.38;5052913;28;1049;-41
2022/06/07 05:03:43;;;;;;;;;;;;;;;27.66;35.71;100610.00;5055919;28;1072;-39
2022/06/07 05:06:18;;;;;;;;;;;;;;;27.75;35.72;100608.88;5051360;28;902;-44
2022/06/07 05:08:43;;;;;;;;;;;;;;;27.66;35.85;100602.72;5055691;28;1088;-46
2022/06/07 05:11:08;;;;;;;;;;;;;;;27.72;36.07;100601.16;5055296;28;1956;-45
2022/06/07 05:13:33;;;;;;;;;;;;;;;27.66;36.64;100602.72;5055341;28;1076;-44
2022/06/07 05:15:59;;;;;;;;;;;;;;;27.66;36.66;100605.41;5036838;28;978;-45
2022/06/07 05:18:24;;;;;;;;;;;;;;;27.72;36.78;100606.56;5055351;28;1049;-43
2022/06/07 05:20:49;;;;;;;;;;;;;;;27.72;36.76;100606.56;5055606;28;1128;-42
2022/06/07 05:23:15;;;;;;;;;;;;;;;27.77;36.61;100616.78;5055013;28;1020;-42
2022/06/07 05:25:44;;;;;;;;;;;;;;;27.73;36.51;100609.06;5059082;28;985;-42
2022/06/07 05:28:09;;;;;;;;;;;;;;;27.74;36.36;100618.03;5058942;28;1084;-44
2022/06/07 05:30:34;;;;;;;;;;;;;;;27.73;36.25;100621.72;5058273;28;1911;-44
2022/06/07 05:33:00;;;;;;;;;;;;;;;27.75;36.78;100617.84;5058869;28;1100;-41
2022/06/07 05:35:26;;;;;;;;;;;;;;;27.68;36.39;100619.63;5058873;28;1107;-41
2022/06/07 05:37:56;;;;;;;;;;;;;;;27.46;36.88;100621.41;5059027;28;1175;-40
2022/06/07 05:40:21;;;;;;;;;;;;;;;27.39;37.04;100608.63;5039876;28;1069;-39
2022/06/07 05:42:46;;;;;;;;;;;;;;;27.65;36.98;100611.84;5059131;28;1206;-41
2022/06/07 05:45:12;;;;;;;;;;;;;;;27.92;36.82;100614.91;5058417;28;1124;-38
2022/06/07 05:47:37;;;;;;;;;;;;;;;27.71;36.94;100607.59;5058195;28;1133;-39
2022/06/07 05:50:04;;;;;;;;;;;;;;;28.09;37.42;100610.03;5053568;28;1029;-41
2022/06/07 05:52:29;;;;;;;;;;;;;;;28.17;36.20;100600.16;5058548;28;1902;-42
2022/06/07 05:54:57;;;;;;;;;;;;;;;28.09;36.55;100614.66;5058362;28;1147;-42
2022/06/07 05:57:22;;;;;;;;;;;;;;;28.15;36.61;100613.88;5040532;28;936;-41
2022/06/07 05:59:48;;;;;;;;;;;;;;;28.03;36.00;100607.31;5058236;28;1168;-46
2022/06/07 06:02:13;;;;;;;;;;;;;;;28.05;36.09;100616.88;5055772;28;961;-37
2022/06/07 06:04:38;;;;;;;;;;;;;;;27.97;35.85;100615.16;5058771;28;997;-41
2022/06/07 06:07:04;;;;;;;;;;;;;;;27.98;36.00;100616.81;5058265;28;1025;-42
2022/06/07 06:12:13;;;;;;;;;;;;;;;27.68;35.86;100607.94;5055217;28;1898;-39
2022/06/07 06:14:39;;;;;;;;;;;;;;;27.65;35.84;100602.91;5058517;28;1021;-42
2022/06/07 06:17:04;;;;;;;;;;;;;;;27.74;35.68;100605.31;5057581;28;1006;-37
2022/06/07 06:19:30;;;;;;;;;;;;;;;27.55;36.23;100595.94;5058420;28;1053;-39
2022/06/07 06:21:55;;;;;;;;;;;;;;;27.52;35.86;100593.63;5054702;28;1253;-39
2022/06/07 06:24:23;;;;;;;;;;;;;;;27.47;35.85;100593.34;5057524;28;1037;-41
2022/06/07 06:26:49;;;;;;;;;;;;;;;27.83;35.63;100595.25;5058357;28;958;-45
2022/06/07 06:29:14;;;;;;;;;;;;;;;27.74;35.53;100597.22;5055464;28;998;-41
2022/06/07 06:31:40;;;;;;;;;;;;;;;27.62;35.43;100593.31;5056824;28;1965;-39
2022/06/07 06:34:06;;;;;;;;;;;;;;;27.64;35.58;100588.56;5057529;28;985;-40
2022/06/07 06:36:31;;;;;;;;;;;;;;;27.69;35.33;100598.84;5057911;28;985;-43
2022/06/07 06:38:57;;;;;;;;;;;;;;;27.68;35.27;100589.00;5057614;28;1044;-40
2022/06/07 06:41:26;;;;;;;;;;;;;;;27.68;35.35;100586.31;5057880;28;1131;-40
2022/06/07 06:43:51;;;;;;;;;;;;;;;27.75;35.67;100587.25;5058088;28;1017;-41
2022/06/07 06:46:24;;;;;;;;;;;;;;;27.71;35.61;100594.09;5049839;28;1307;-44
2022/06/07 06:48:49;;;;;;;;;;;;;;;27.55;35.78;100587.84;5052266;28;1179;-42
2022/06/07 06:51:16;;;;;;;;;;;;;;;27.78;35.11;100581.47;5055602;28;1894;-43
2022/06/07 06:53:42;;;;;;;;;;;;;;;27.77;36.07;100590.63;5050945;28;974;-40
2022/06/07 06:56:07;;;;;;;;;;;;;;;27.75;35.52;100589.97;5057770;28;1036;-39
2022/06/07 06:58:33;;;;;;;;;;;;;;;27.68;35.49;100589.88;5057522;28;1068;-40
2022/06/07 07:00:59;;;;;;;;;;;;;;;27.87;35.82;100593.84;5056517;28;833;-39
2022/06/07 07:03:24;;;;;;;;;;;;;;;27.87;35.85;100590.28;5057310;28;1140;-47
2022/06/07 07:05:50;;;;;;;;;;;;;;;28.15;35.69;100594.09;5038826;28;1010;-39
2022/06/07 07:08:16;;;;;;;;;;;;;;;28.20;35.67;100588.94;5056870;28;997;-43
2022/06/07 07:10:41;;;;;;;;;;;;;;;28.24;35.77;100591.03;5057052;28;1961;-41
2022/06/07 07:13:07;;;;;;;;;;;;;;;28.27;35.82;100595.25;5057259;28;1135;-42
2022/06/07 07:15:33;;;;;;;;;;;;;;;28.33;35.31;100597.19;5056670;28;1195;-39
2022/06/07 07:17:59;;;;;;;;;;;;;;;28.29;35.76;100600.47;5057169;28;966;-38
2022/06/07 07:20:24;;;;;;;;;;;;;;;28.31;36.02;100609.22;5057435;28;1020;-40
2022/06/07 07:22:49;;;;;;;;;;;;;;;28.25;36.00;100602.72;5056801;28;1139;-40
2022/06/07 07:25:14;;;;;;;;;;;;;;;28.40;35.83;100607.22;5056647;28;1069;-40
2022/06/07 07:27:41;;;;;;;;;;;;;;;28.39;35.99;100611.81;5057145;28;1198;-42
2022/06/07 07:30:06;;;;;;;;;;;;;;;28.39;35.87;100610.97;5056928;28;1123;-41
2022/06/07 07:32:32;;;;;;;;;;;;;;;28.39;36.51;100616.38;5057001;28;1906;-41
2022/06/07 07:34:57;;;;;;;;;;;;;;;28.40;36.41;100615.34;5039222;28;1017;-41
2022/06/07 07:37:23;;;;;;;;;;;;;;;28.39;36.19;100613.69;5054010;28;1001;-41
2022/06/07 07:39:49;;;;;;;;;;;;;;;28.40;36.65;100610.78;5056825;28;1025;-41
2022/06/07 07:42:14;;;;;;;;;;;;;;;28.37;36.47;100605.75;5056694;28;1047;-40
2022/06/07 07:44:39;;;;;;;;;;;;;;;28.39;36.43;100601.00;5055861;28;1032;-40
2022/06/07 07:47:04;;;;;;;;;;;;;;;28.44;36.81;100603.97;5055039;28;1261;-43
2022/06/07 07:49:31;;;;;;;;;;;;;;;28.39;36.78;100603.72;5056700;28;1096;-45
2022/06/07 07:51:56;;;;;;;;;;;;;;;28.43;36.75;100598.72;5055503;28;1959;-43
2022/06/07 07:54:21;;;;;;;;;;;;;;;28.39;37.05;100601.00;5056706;28;1080;-42
2022/06/07 07:56:47;;;;;;;;;;;;;;;28.48;37.21;100604.38;5051001;28;947;-43
2022/06/07 07:59:13;;;;;;;;;;;;;;;28.58;37.45;100601.34;5055632;28;1060;-41
2022/06/07 08:01:38;;;;;;;;;;;;;;;28.59;37.23;100600.31;5054562;28;1112;-47
2022/06/07 08:04:03;;;;;;;;;;;;;;;28.56;37.25;100603.44;5052760;28;1282;-43
2022/06/07 08:06:29;;;;;;;;;;;;;;;28.56;37.31;100609.66;5037973;28;1081;-41
2022/06/07 08:08:56;;;;;;;;;;;;;;;28.62;37.13;100609.91;5056136;28;1459;-38
2022/06/07 08:11:22;;;;;;;;;;;;;;;28.63;37.21;100601.59;5055920;28;1902;-40
2022/06/07 08:13:47;;;;;;;;;;;;;;;28.60;37.33;100604.69;5054361;28;1210;-39
2022/06/07 08:16:12;;;;;;;;;;;;;;;28.65;37.31;100610.34;5055342;28;909;-40
2022/06/07 08:18:38;;;;;;;;;;;;;;;28.74;37.26;100608.34;5056040;28;970;-41
2022/06/07 08:21:05;;;;;;;;;;;;;;;28.72;37.44;100603.13;5055612;28;1092;-42
2022/06/07 08:23:31;;;;;;;;;;;;;;;28.69;37.65;100611.66;5031739;28;1088;-41
2022/06/07 08:25:56;;;;;;;;;;;;;;;28.70;37.27;100613.31;5051961;28;1100;-42
2022/06/07 08:28:21;;;;;;;;;;;;;;;28.72;37.26;100610.41;5054998;28;985;-42
2022/06/07 08:30:47;;;;;;;;;;;;;;;28.64;37.50;100608.69;5055813;28;1893;-41
2022/06/07 08:38:40;;;;;;;;;;;;;;;28.47;37.95;100603.56;5055943;28;1100;-40
2022/06/07 08:41:05;;;;;;;;;;;;;;;28.48;37.89;100607.94;5055446;28;1168;-39
2022/06/07 08:43:31;;;;;;;;;;;;;;;28.45;38.09;100607.50;5049429;28;965;-39
2022/06/07 08:45:57;;;;;;;;;;;;;;;28.53;37.53;100603.81;5055331;28;961;-39
2022/06/07 08:48:26;;;;;;;;;;;;;;;28.58;37.63;100606.75;5038257;28;1081;-40
2022/06/07 08:50:57;;;;;;;;;;;;;;;28.63;37.73;100604.28;5055374;28;1906;-39
2022/06/07 08:53:42;;;;;;;;;;;;;;;28.63;37.78;100603.47;5051856;28;982;-39
2022/06/07 08:56:17;;;;;;;;;;;;;;;28.67;37.63;100599.31;5053995;28;946;-43
2022/06/07 08:58:43;;;;;;;;;;;;;;;28.71;37.65;100592.50;5056237;28;989;-45
2022/06/07 09:01:27;;;;;;;;;;;;;;;28.67;37.93;100593.91;5059443;28;1141;-41
2022/06/07 09:03:52;;;;;;;;;;;;;;;28.69;37.69;100586.44;5059746;28;1143;-41
2022/06/07 09:06:22;;;;;;;;;;;;;;;28.73;37.81;100588.53;5059296;28;1056;-46
2022/06/07 09:08:50;;;;;;;;;;;;;;;28.77;37.86;100588.16;5058912;28;1123;-46
2022/06/07 09:14:43;;;;;;;;;;;;;;;28.73;37.78;100585.84;5059287;28;943;-46
2022/06/07 09:17:16;;;;;;;;;;;;;;;28.75;37.98;100582.09;5059293;28;935;-43
2022/06/07 09:19:41;;;;;;;;;;;;;;;28.74;37.87;100583.97;5059141;28;973;-42
2022/06/07 09:22:09;;;;;;;;;;;;;;;28.83;37.88;100581.94;5040692;28;1128;-42
2022/06/07 09:24:37;;;;;;;;;;;;;;;28.88;37.70;100587.59;5041615;28;1186;-41
2022/06/07 09:27:06;;;;;;;;;;;;;;;29.04;37.57;100593.75;5059159;28;1179;-44
2022/06/07 09:29:36;;;;;;;;;;;;;;;29.09;37.65;100592.09;5041214;28;1378;-40
2022/06/07 09:32:01;;;;;;;;;;;;;;;29.15;37.34;100584.22;5057092;28;1898;-41
2022/06/07 09:34:27;;;;;;;;;;;;;;;29.22;37.19;100585.09;5059260;28;1029;-43
2022/06/07 09:36:56;;;;;;;;;;;;;;;29.24;37.11;100591.16;5058859;28;1001;-42
2022/06/07 09:39:40;;;;;;;;;;;;;;;29.25;37.19;100598.22;5041133;28;1029;-44
2022/06/07 09:42:25;;;;;;;;;;;;;;;29.32;37.14;100573.88;5041707;28;1002;-46
2022/06/07 09:44:57;;;;;;;;;;;;;;;29.38;36.57;100583.09;5057945;28;1451;-42
2022/06/07 09:47:25;;;;;;;;;;;;;;;29.46;36.64;100580.19;5056826;28;1146;-41
2022/06/07 09:49:51;;;;;;;;;;;;;;;29.53;36.56;100581.03;5058690;28;1021;-41
2022/06/07 09:52:24;;;;;;;;;;;;;;;29.53;36.83;100572.91;5058871;28;1910;-41
2022/06/07 09:55:06;;;;;;;;;;;;;;;29.57;36.82;100579.59;5057700;28;1056;-42
2022/06/07 09:57:38;;;;;;;;;;;;;;;29.48;36.59;100572.69;5020987;28;995;-40
2022/06/07 10:00:17;;;;;;;;;;;;;;;29.47;36.87;100576.44;5041324;28;1013;-41
2022/06/07 10:02:46;;;;;;;;;;;;;;;29.54;36.78;100568.34;5040801;28;1513;-42
2022/06/07 10:05:12;;;;;;;;;;;;;;;29.36;37.00;100558.91;5040821;28;1027;-40
2022/06/07 10:07:39;;;;;;;;;;;;;;;29.27;37.29;100558.25;5058582;28;1033;-40
2022/06/07 10:10:23;;;;;;;;;;;;;;;29.35;37.21;100562.63;5040149;28;1041;-45
2022/06/07 10:12:56;;;;;;;;;;;;;;;29.30;37.07;100557.84;5058635;28;1902;-40
2022/06/07 10:16:00;;;;;;;;;;;;;;;29.46;37.15;100553.09;5040225;28;1164;-44
2022/06/07 10:18:38;;;;;;;;;;;;;;;29.58;36.79;100554.16;4997135;28;1273;-41
2022/06/07 10:21:08;;;;;;;;;;;;;;;29.62;37.06;100551.91;4995923;28;1018;-43
2022/06/07 10:23:48;;;;;;;;;;;;;;;29.65;37.01;100551.50;5029003;28;1140;-43
2022/06/07 10:26:13;;;;;;;;;;;;;;;29.66;36.81;100546.91;5058564;28;941;-45
2022/06/07 10:28:44;;;;;;;;;;;;;;;29.57;37.11;100538.94;5057828;28;976;-40
2022/06/07 10:31:16;;;;;;;;;;;;;;;29.58;37.10;100543.31;5057657;28;1893;-41
2022/06/07 10:33:42;;;;;;;;;;;;;;;29.51;37.27;100542.47;5057909;28;1073;-40
2022/06/07 10:36:25;;;;;;;;;;;;;;;29.51;37.32;100533.50;5057684;28;842;-42
2022/06/07 10:39:09;;;;;;;;;;;;;;;29.50;37.27;100532.66;5058361;28;1037;-40
2022/06/07 10:42:00;;;;;;;;;;;;;;;29.53;37.20;100528.72;5057751;28;1026;-41
2022/06/07 10:44:44;;;;;;;;;;;;;;;29.53;37.29;100534.97;5022771;28;1280;-42
2022/06/07 10:47:30;;;;;;;;;;;;;;;29.58;37.19;100526.22;5054757;28;990;-41
2022/06/07 10:49:58;;;;;;;;;;;;;;;29.62;37.28;100523.97;5042447;28;1126;-43
2022/06/07 10:52:36;;;;;;;;;;;;;;;29.57;37.52;100519.97;5039870;28;1898;-42
2022/06/07 10:55:01;;;;;;;;;;;;;;;29.60;37.30;100521.47;5058050;28;1069;-39
2022/06/07 10:57:35;;;;;;;;;;;;;;;29.60;37.26;100513.31;5057290;28;982;-41
2022/06/07 11:00:02;;;;;;;;;;;;;;;29.59;37.54;100511.66;5056210;28;961;-42
2022/06/07 11:02:34;;;;;;;;;;;;;;;29.57;37.43;100517.25;5051363;28;915;-43
2022/06/07 11:10:35;;;;;;;;;;;;;;;29.59;37.39;100517.09;5042221;28;1906;-47
2022/06/07 11:13:33;;;;;;;;;;;;;;;29.61;37.40;100509.59;5057286;28;978;-45
2022/06/07 11:16:04;;;;;;;;;;;;;;;29.57;37.45;100517.25;5017316;28;1307;-42
2022/06/07 11:18:29;;;;;;;;;;;;;;;29.55;37.53;100508.50;5057386;28;1009;-45
2022/06/07 11:21:01;;;;;;;;;;;;;;;29.51;37.68;100511.84;5038679;28;1120;-43
2022/06/07 11:23:41;;;;;;;;;;;;;;;29.49;37.83;100508.47;5056831;28;1002;-41
2022/06/07 11:26:14;;;;;;;;;;;;;;;29.41;38.08;100509.53;5056864;28;1444;-39
2022/06/07 11:28:39;;;;;;;;;;;;;;;29.42;37.57;100503.03;5057068;28;1007;-40
2022/06/07 11:31:24;;;;;;;;;;;;;;;29.17;37.82;100499.03;5056413;28;1913;-40
2022/06/07 11:33:53;;;;;;;;;;;;;;;29.11;38.12;100496.28;5056620;28;1084;-44
2022/06/07 11:36:24;;;;;;;;;;;;;;;29.16;38.09;100486.50;5057346;28;1040;-41
2022/06/07 11:41:38;;;;;;;;;;;;;;;29.07;38.21;100472.34;5056341;28;1049;-42
2022/06/07 11:44:12;;;;;;;;;;;;;;;29.19;37.90;100472.59;5057173;28;1061;-42
2022/06/07 11:46:50;;;;;;;;;;;;;;;29.26;37.78;100464.44;5056117;28;1099;-45
2022/06/07 11:49:24;;;;;;;;;;;;;;;29.25;37.64;100462.78;5056638;28;1026;-42
2022/06/07 11:51:58;;;;;;;;;;;;;;;29.25;37.24;100449.25;5055300;28;1902;-43
2022/06/07 11:54:25;;;;;;;;;;;;;;;29.33;37.72;100451.75;5055882;28;1026;-41
2022/06/07 11:56:51;;;;;;;;;;;;;;;29.39;37.55;100457.41;5056079;28;1116;-40
2022/06/07 11:59:16;;;;;;;;;;;;;;;29.29;37.68;100461.34;5038153;28;1041;-40
2022/06/07 12:01:44;;;;;;;;;;;;;;;29.34;37.76;100463.44;5055293;28;1104;-41
2022/06/07 12:04:28;;;;;;;;;;;;;;;29.29;37.94;100465.94;5054947;28;1040;-44
2022/06/07 12:06:53;;;;;;;;;;;;;;;29.27;38.00;100454.47;5056635;28;875;-47
2022/06/07 12:09:19;;;;;;;;;;;;;;;29.03;39.11;100448.56;5056142;28;962;-44
2022/06/07 12:11:44;;;;;;;;;;;;;;;28.70;39.92;100450.91;5056412;28;1902;-43
2022/06/07 12:14:21;;;;;;;;;;;;;;;29.04;38.93;100448.38;5055730;28;1100;-44
2022/06/07 12:16:50;;;;;;;;;;;;;;;29.07;37.83;100439.00;5038421;28;908;-44
2022/06/07 12:19:18;;;;;;;;;;;;;;;28.96;36.63;100433.09;5055908;28;1028;-44
2022/06/07 12:21:46;;;;;;;;;;;;;;;28.81;36.50;100435.13;5055924;28;1104;-43
2022/06/07 12:24:15;;;;;;;;;;;;;;;28.81;36.39;100435.13;5037643;28;1324;-43
2022/06/07 12:26:40;;;;;;;;;;;;;;;28.82;35.96;100426.81;5055945;28;1127;-42
2022/06/07 12:29:24;;;;;;;;;;;;;;;28.92;35.84;100436.41;5055796;28;1038;-43
2022/06/07 12:31:51;;;;;;;;;;;;;;;28.69;35.65;100433.00;5054579;28;1953;-43
2022/06/07 12:34:17;;;;;;;;;;;;;;;28.62;35.84;100428.59;5037738;28;1509;-42
2022/06/07 12:36:42;;;;;;;;;;;;;;;28.41;35.79;100431.19;5056035;28;982;-42
2022/06/07 12:39:14;;;;;;;;;;;;;;;28.27;35.79;100426.72;5038393;28;1497;-42
2022/06/07 12:41:52;;;;;;;;;;;;;;;28.19;35.73;100431.25;5055538;28;958;-40
2022/06/07 12:44:36;;;;;;;;;;;;;;;28.14;35.58;100425.59;5038080;28;1073;-40
2022/06/07 12:47:01;;;;;;;;;;;;;;;28.09;35.58;100419.94;5037946;28;1116;-40
2022/06/07 12:49:30;;;;;;;;;;;;;;;28.31;35.17;100422.59;5055608;28;1277;-43
2022/06/07 12:52:03;;;;;;;;;;;;;;;28.50;35.04;100417.50;5049023;28;1910;-41
2022/06/07 12:54:29;;;;;;;;;;;;;;;28.48;35.26;100409.56;5055688;28;1226;-40
2022/06/07 12:56:55;;;;;;;;;;;;;;;28.53;34.84;100401.69;5054937;28;934;-41
2022/06/07 12:59:28;;;;;;;;;;;;;;;28.45;34.70;100401.88;5049331;28;1668;-42
2022/06/07 13:01:53;;;;;;;;;;;;;;;28.30;35.11;100401.97;5031742;28;1001;-40
2022/06/07 13:04:19;;;;;;;;;;;;;;;28.41;34.87;100400.63;5037384;28;1006;-41
2022/06/07 13:06:56;;;;;;;;;;;;;;;28.43;35.41;100407.47;5055552;28;1147;-40
2022/06/07 13:09:22;;;;;;;;;;;;;;;28.20;35.17;100419.41;5050216;28;877;-41
2022/06/07 13:11:47;;;;;;;;;;;;;;;28.20;34.64;100407.72;5037536;28;1968;-39
2022/06/07 13:14:15;;;;;;;;;;;;;;;27.98;34.78;100410.50;5055864;28;1080;-39
2022/06/07 13:16:42;;;;;;;;;;;;;;;27.88;35.06;100413.56;5037550;28;1049;-39
2022/06/07 13:19:13;;;;;;;;;;;;;;;27.84;35.07;100423.91;5051777;28;1119;-36
2022/06/07 13:21:48;;;;;;;;;;;;;;;27.98;36.12;100421.31;5056186;28;906;-37
2022/06/07 13:24:23;;;;;;;;;;;;;;;28.08;35.66;100421.81;5055503;28;1258;-41